Allegany Spring, Virginia
Current Conditions -  °F | °C
As of 11:15 AM on Wednesday 22 Oct 2014 (Local Time) from KBCB Reporting Station
Broken Clouds Broken Clouds  
Wind Chill: 52°   Ceiling: 2900
Heat Index: 52°   Visibility: 10mi
Dew Point: 43°   Wind: 13mph
Humidity: 71%   Direction: 320°NW
Pressure: 30.11"   Gusts: 17mph
Location:  37.1336°N, 80.2545°W
Report Text: KBCB 221515Z AUTO 32011G15KT 280V340 10SM BKN029 11/06 A3011 RMK AO2
Loading
Personal Weather Stations






























Interactive Weather Map
Tropical Storm Tracking
New forecast layout! Learn more

10-Day Weather Forecast

Advertisements
Track Severe Weather on mobile